Latest Coastal Weather Observations for Portland Airport

IDV60701

Issued at 3:12 pm EST Thursday 27 April 2017 (issued every 10 minutes, with the page automatically refreshed every 10 minutes)

About coastal observations | Map of coastal stations | Coastal observations for VIC | Marine services | Other Formats
Station Details ID: 090171 Name: CASHMORE AIRPORT Lat: -38.31 Lon: 141.47 Height: 80.9 m
Data from the previous 72 hours. | See also: Recent months at Portland Airport
Date/Time
EST
Temp
°C
Wind Pressure Rain since
9am
mm
Weather Cloud Vis
km
Sea
Height
m
Swell
Dir  Spd
kts
Gust
kts
hPa Trend Height
m
Period
s
Dir
27/03:00pm 13.6 W 11 14 1023.8 - 0.0 - Mostly cloudy 10 - - - -
27/02:30pm 13.5 W 12 15 1024.0 - 0.0 - Partly cloudy 10 - - - -
27/02:04pm 12.6 W 10 13 1024.2 - 0.0 - Partly cloudy 10 - - - -
27/02:00pm 12.7 W 10 14 1024.2 - 0.0 - Partly cloudy 10 - - - -
27/01:46pm 12.5 W 11 16 1024.4 - 0.0 - Partly cloudy 6 - - - -
27/01:30pm 14.0 W 12 18 1024.3 - 0.0 - Partly cloudy 10 - - - -
27/01:00pm 14.4 W 13 16 1024.5 - 0.0 - Partly cloudy 10 - - - -
27/12:30pm 13.8 W 12 15 1024.8 - 0.0 - Partly cloudy 10 - - - -
27/12:00pm 14.9 WSW 11 15 1024.9 - 0.0 - Mostly cloudy 10 - - - -
27/11:30am 13.6 W 12 16 1025.1 - 0.0 - Partly cloudy 10 - - - -
27/11:00am 14.5 W 11 15 1025.2 - 0.0 - Partly cloudy 10 - - - -
27/10:30am 14.0 W 12 16 1025.0 - 0.0 - Partly cloudy 10 - - - -
27/10:00am 13.7 WSW 10 14 1024.8 - 0.0 - Partly cloudy 10 - - - -
27/09:30am 13.5 WSW 8 11 1025.0 - 0.0 - Partly cloudy 10 - - - -
27/09:00am 12.8 WSW 7 11 1025.1 - 1.0 - Mostly clear 10 - - - -
27/08:30am 12.0 WSW 7 10 1024.9 - 1.0 - Partly cloudy 10 - - - -
27/08:00am 9.9 WSW 5 6 1024.8 - 1.0 - Partly cloudy 10 - - - -
27/07:30am 8.9 WSW 5 7 1024.5 - 1.0 - Partly cloudy 10 - - - -
27/07:00am 9.1 W 3 4 1024.2 - 1.0 - Partly cloudy 10 - - - -
27/06:30am 9.9 SW 6 7 1024.1 - 1.0 - Partly cloudy 10 - - - -
27/06:00am 9.4 SW 6 8 1024.1 - 1.0 - Mostly cloudy 10 - - - -
27/05:30am 8.9 WSW 7 8 1023.9 - 1.0 - Partly cloudy 10 - - - -
27/05:00am 9.9 WSW 6 9 1023.6 - 1.0 - Partly cloudy 10 - - - -
27/04:30am 10.1 SW 5 7 1023.1 - 1.0 - Partly cloudy 10 - - - -
27/04:00am 10.2 SW 6 10 1023.1 - 1.0 - Partly cloudy 10 - - - -
27/03:30am 10.1 SW 6 9 1023.2 - 1.0 - Partly cloudy 10 - - - -
27/03:00am 10.2 SW 5 6 1023.3 - 1.0 - Mostly clear 10 - - - -
27/02:30am 10.7 SW 6 9 1023.3 - 1.0 - Partly cloudy 10 - - - -
27/02:00am 10.9 SSW 7 12 1023.3 - 1.0 - Partly cloudy 10 - - - -
27/01:30am 11.1 S 7 11 1023.2 - 1.0 - Partly cloudy 10 - - - -
27/01:00am 11.0 SSW 6 9 1023.2 - 1.0 - Partly cloudy 10 - - - -
27/12:30am 10.7 SSW 7 12 1023.0 - 1.0 - Partly cloudy 10 - - - -
27/12:00am 10.8 S 8 12 1023.1 - 1.0 - Mostly clear 10 - - - -
 
Date/Time
EST
Temp
°C
Wind Pressure Rain since
9am
mm
Weather Cloud Vis
km
Sea
Height
m
Swell
Dir  Spd
kts
Gust
kts
hPa Trend Height
m
Period
s
Dir
26/11:30pm 11.0 SSW 7 12 1022.9 - 1.0 - Partly cloudy 10 - - - -
26/11:00pm 11.0 SSW 7 12 1022.9 - 1.0 - Partly cloudy 10 - - - -
26/10:30pm 10.8 SSW 8 12 1022.8 - 1.0 - Partly cloudy 10 - - - -
26/10:00pm 10.8 SSW 9 14 1022.6 - 1.0 - Partly cloudy 10 - - - -
26/09:30pm 10.8 SSW 9 15 1022.4 - 1.0 - - 10 - - - -
26/09:00pm 10.9 SSW 9 14 1022.2 - 1.0 - Mostly cloudy 10 - - - -
26/08:30pm 11.2 SSW 10 18 1021.8 - 1.0 - Partly cloudy 10 - - - -
26/08:00pm 10.8 SSW 9 15 1021.7 - 1.0 - Partly cloudy 10 - - - -
26/07:30pm 10.9 SSW 10 18 1021.5 - 1.0 - Partly cloudy 10 - - - -
26/07:00pm 10.6 S 9 15 1021.2 - 1.0 - Partly cloudy 10 - - - -
26/06:30pm 10.6 SSW 9 15 1020.9 - 1.0 - Partly cloudy 10 - - - -
26/06:00pm 10.7 SSW 10 17 1020.6 - 1.0 - Partly cloudy 10 - - - -
26/05:30pm 10.7 SSW 9 13 1020.2 - 1.0 - Partly cloudy 10 - - - -
26/05:00pm 11.2 SW 11 18 1019.9 - 1.0 - Partly cloudy 10 - - - -
26/04:30pm 11.7 SW 9 15 1019.5 - 1.0 - Partly cloudy 10 - - - -
26/04:00pm 11.7 SW 13 20 1019.3 - 1.0 - Partly cloudy 10 - - - -
26/03:30pm 11.0 SW 10 18 1019.1 - 1.0 - Partly cloudy 10 - - - -
26/03:00pm 10.2 SW 12 18 1019.1 - 0.8 - Partly cloudy 10 - - - -
26/02:30pm 8.9 SW 13 20 1018.8 - 0.8 - Partly cloudy 10 - - - -
26/02:00pm 11.3 SW 13 19 1018.8 - 0.8 - Partly cloudy 10 - - - -
26/01:30pm 11.1 SW 15 20 1018.7 - 0.8 - Partly cloudy 10 - - - -
26/01:00pm 9.7 SSW 10 20 1018.7 - 0.6 - Partly cloudy 8 - - - -
26/12:30pm 12.0 SSW 11 17 1018.4 - 0.0 - Partly cloudy 10 - - - -
26/12:00pm 11.9 SSW 11 19 1018.6 - 0.0 - Mostly clear 10 - - - -
26/11:30am 11.4 SSW 12 19 1018.4 - 0.0 - Partly cloudy 10 - - - -
26/11:00am 12.0 SSW 14 24 1017.8 - 0.0 - Partly cloudy 10 - - - -
26/10:30am 11.9 SSW 8 13 1017.3 - 0.0 - Partly cloudy 10 - - - -
26/10:00am 11.4 S 15 26 1017.0 - 0.0 - Partly cloudy 10 - - - -
26/09:58am 11.4 SSW 15 26 1016.9 - 0.0 - Partly cloudy 10 - - - -
26/09:30am 10.9 SSW 14 20 1016.2 - 0.0 - Partly cloudy 10 - - - -
26/09:00am 11.4 SSW 13 21 1015.6 - 12.0 - Cloudy 10 - - - -
26/08:31am 10.8 S 15 26 1015.2 - 12.0 - Partly cloudy 10 - - - -
26/08:30am 11.0 S 15 22 1015.1 - 12.0 - Partly cloudy 10 - - - -
26/08:00am 10.2 S 10 16 1014.6 - 12.0 - Partly cloudy 10 - - - -
26/07:30am 9.6 S 11 21 1013.9 - 12.0 - Partly cloudy 10 - - - -
26/07:00am 10.0 S 14 23 1013.2 - 12.0 - Partly cloudy 10 - - - -
26/06:44am 10.3 S 15 28 1012.7 - 12.0 - Partly cloudy 10 - - - -
26/06:30am 10.5 S 15 22 1012.3 - 12.0 - Partly cloudy 10 - - - -
26/06:00am 10.9 SSW 13 24 1011.8 - 12.0 - Partly cloudy 10 - - - -
26/05:30am 10.6 S 12 21 1011.1 - 12.0 - Partly cloudy 10 - - - -
26/05:00am 10.9 SSW 13 21 1010.3 - 12.0 - Partly cloudy 10 - - - -
26/04:30am 10.6 SSW 11 20 1009.7 - 12.0 - Partly cloudy 10 - - - -
26/04:00am 10.3 SSW 12 22 1009.3 - 12.0 - Partly cloudy 10 - - - -
26/03:30am 10.2 S 12 20 1008.8 - 12.0 - Partly cloudy 10 - - - -
26/03:00am 10.6 SSW 13 20 1008.4 - 12.0 - Cloudy 10 - - - -
26/02:30am 10.3 SSW 12 19 1008.0 - 12.0 - Partly cloudy 10 - - - -
26/02:00am 10.0 SSW 12 20 1007.5 - 12.0 - Partly cloudy 10 - - - -
26/01:30am 9.5 SSW 12 22 1007.1 - 11.8 - Partly cloudy 7 - - - -
26/01:00am 9.0 SSW 14 21 1007.0 - 11.0 - Partly cloudy 10 - - - -
26/12:30am 10.2 SW 7 9 1006.5 - 10.6 - Partly cloudy 10 - - - -
26/12:00am 10.2 SW 5 9 1006.2 - 10.6 Recent precip. Cloudy 10 - - - -
 
Date/Time
EST
Temp
°C
Wind Pressure Rain since
9am
mm
Weather Cloud Vis
km
Sea
Height
m
Swell
Dir  Spd
kts
Gust
kts
hPa Trend Height
m
Period
s
Dir
25/11:53pm 10.2 SSW 6 11 1006.3 - 10.6 - Partly cloudy 10 - - - -
25/11:37pm 10.1 SW 10 18 1006.5 - 10.4 - Partly cloudy 6 - - - -
25/11:36pm 10.2 WSW 10 18 1006.5 - 10.2 - Partly cloudy 7 - - - -
25/11:30pm 10.3 WSW 8 11 1006.2 - 9.6 - Partly cloudy 10 - - - -
25/11:17pm 10.2 WSW 11 16 1006.4 - 8.8 - Partly cloudy 6 - - - -
25/11:00pm 10.6 SW 11 18 1006.3 - 7.0 - Partly cloudy 10 - - - -
25/10:47pm 10.3 SW 12 20 1006.2 - 6.8 - Partly cloudy 10 - - - -
25/10:30pm 10.6 SSW 16 27 1006.2 - 6.0 - Partly cloudy 10 - - - -
25/10:00pm 10.9 SW 17 27 1005.6 - 5.0 - Partly cloudy 10 - - - -
25/09:58pm 10.9 SW 16 27 1005.5 - 5.0 - Partly cloudy 10 - - - -
25/09:56pm 11.0 SW 16 27 1005.5 - 5.0 - Partly cloudy 10 - - - -
25/09:52pm 11.6 WSW 14 21 1005.3 - 4.8 - Partly cloudy 9 - - - -
25/09:41pm 11.5 WSW 18 28 1005.3 - 4.6 - Partly cloudy 3 - - - -
25/09:36pm 11.9 W 17 28 1005.3 - 3.6 - Partly cloudy 6 - - - -
25/09:34pm 12.5 W 17 28 1005.3 - 3.0 - Partly cloudy 10 - - - -
25/09:32pm 13.6 W 15 28 1005.2 - 2.8 - Partly cloudy 10 - - - -
25/09:30pm 14.0 WNW 14 21 1004.9 - 2.8 - Partly cloudy 10 - - - -
25/09:00pm 14.1 WNW 17 25 1005.1 - 2.8 - Cloudy 10 - - - -
25/08:30pm 14.0 WNW 17 23 1005.5 - 2.8 - Partly cloudy 10 - - - -
25/08:00pm 13.9 WNW 17 25 1005.5 - 2.8 - Partly cloudy 10 - - - -
25/07:30pm 13.6 WNW 16 22 1005.7 - 2.8 - Partly cloudy 10 - - - -
25/07:00pm 13.3 WNW 17 24 1005.7 - 2.8 - Partly cloudy 8 - - - -
25/06:50pm 14.0 WNW 15 26 1005.8 - 2.6 - Partly cloudy 10 - - - -
25/06:30pm 13.8 NW 13 17 1005.8 - 2.0 - Partly cloudy 10 - - - -
25/06:00pm 13.6 WNW 13 19 1005.9 - 2.0 - Cloudy 10 - - - -
25/05:30pm 12.8 WNW 9 14 1006.0 - 2.0 - Partly cloudy 10 - - - -
25/05:00pm 13.1 W 9 12 1006.3 - 2.0 - Partly cloudy 10 - - - -
25/04:59pm 13.1 W 9 12 1006.3 - 2.0 - Partly cloudy 10 - - - -
25/04:39pm 12.8 WSW 13 18 1006.3 - 1.8 - Partly cloudy 10 - - - -
25/04:30pm 12.7 WSW 13 19 1006.4 - 1.8 - Partly cloudy 7 - - - -
25/04:11pm 12.8 W 17 25 1006.7 - 1.2 - Partly cloudy 5 - - - -
25/04:08pm 12.9 W 15 25 1006.5 - 1.2 - Partly cloudy 6 - - - -
25/04:07pm 13.1 W 15 25 1006.5 - 1.0 - Partly cloudy 7 - - - -
25/04:00pm 13.6 W 13 19 1006.5 - 0.8 - Partly cloudy 9 - - - -
25/03:43pm 14.0 W 15 23 1006.5 - 0.2 - Partly cloudy 9 - - - -
25/03:30pm 15.0 W 17 22 1006.5 - 0.0 - Partly cloudy 10 - - - -
25/03:27pm 15.1 W 16 22 1006.4 - 0.0 - Partly cloudy 10 - - - -
25/03:00pm 16.0 WNW 13 17 1006.4 - 0.0 - Cloudy 10 - - - -
25/02:30pm 16.4 W 12 15 1006.7 - 0.0 - Partly cloudy 10 - - - -
25/02:00pm 18.0 W 11 15 1007.0 - 0.0 - Partly cloudy 10 - - - -
25/01:30pm 17.6 WNW 11 16 1007.7 - 0.0 - - 10 - - - -
25/01:00pm 17.6 W 10 13 1008.2 - 0.0 - - 10 - - - -
25/12:30pm 17.1 WNW 11 14 1008.8 - 0.0 - Partly cloudy 10 - - - -
25/12:00pm 17.5 W 10 13 1009.2 - 0.0 - Mostly clear 10 - - - -
25/11:30am 16.5 WNW 9 12 1009.9 - 0.0 - Partly cloudy 10 - - - -
25/11:00am 15.9 W 8 10 1010.1 - 0.0 - Partly cloudy 10 - - - -
25/10:30am 15.9 W 7 8 1010.2 - 0.0 - Partly cloudy 10 - - - -
25/10:00am 15.3 W 6 9 1010.3 - 0.0 - Partly cloudy 10 - - - -
25/09:30am 14.7 WSW 4 5 1010.5 - 0.0 - Partly cloudy 10 - - - -
25/09:00am 14.4 WSW 5 7 1010.7 - 11.6 - Mostly cloudy 10 - - - -
25/08:30am 14.1 WSW 4 5 1010.6 - 11.6 - Partly cloudy 10 - - - -
25/08:00am 13.5 WNW 5 6 1010.3 - 11.6 - Cloudy 10 - - - -
25/07:30am 13.3 SW 4 5 1009.9 - 11.6 - Cloudy 10 - - - -
25/07:16am 13.1 SW 4 6 1009.8 - 11.6 - Partly cloudy 10 - - - -
25/07:00am 12.1 WSW 5 6 1009.8 - 11.6 - Partly cloudy 1 - - - -
25/06:30am 12.6 WSW 4 4 1009.7 - 11.4 - Partly cloudy 4 - - - -
25/06:00am 12.6 W 5 5 1009.7 - 11.4 - Partly cloudy 4 - - - -
25/05:55am 12.9 W 5 6 1009.7 - 11.4 - Partly cloudy 6 - - - -
25/05:30am 13.5 W 5 6 1009.6 - 11.4 - Partly cloudy 10 - - - -
25/05:20am 13.4 W 4 5 1009.5 - 11.4 - Partly cloudy 10 - - - -
25/05:00am 13.7 SW 6 7 1009.3 - 11.4 - Partly cloudy 10 - - - -
25/04:30am 13.6 SSW 3 4 1009.2 - 11.4 - Partly cloudy 10 - - - -
25/04:21am 13.7 SW 5 7 1009.3 - 11.4 - Partly cloudy 10 - - - -
25/04:00am 13.6 WSW 8 9 1009.5 - 11.0 - Partly cloudy 5 - - - -
25/03:46am 13.9 WSW 9 11 1009.5 - 10.2 - Partly cloudy 6 - - - -
25/03:35am 13.9 W 7 9 1009.4 - 10.2 - Partly cloudy 7 - - - -
25/03:30am 13.9 W 7 9 1009.4 - 10.0 - Partly cloudy 8 - - - -
25/03:00am 14.2 W 5 8 1009.5 - 9.0 Rain Cloudy 2 - - - -
25/02:54am 14.1 W 5 6 1009.6 - 8.6 - Partly cloudy 2 - - - -
25/02:30am 13.9 CALM 0 0 1009.7 - 8.4 - Partly cloudy 5 - - - -
25/02:00am 13.8 CALM 0 0 1010.0 - 8.4 - Partly cloudy 2 - - - -
25/01:45am 14.0 CALM 0 0 1010.1 - 8.4 - Partly cloudy 5 - - - -
25/01:39am 14.2 CALM 0 0 1010.1 - 8.4 - Partly cloudy 8 - - - -
25/01:30am 14.2 CALM 0 0 1010.2 - 8.4 - Partly cloudy 7 - - - -
25/01:08am 14.2 CALM 0 0 1010.2 - 8.4 - Partly cloudy 6 - - - -
25/01:07am 14.2 CALM 0 0 1010.3 - 8.4 - Partly cloudy 6 - - - -
25/01:00am 14.2 CALM 0 0 1010.4 - 8.4 - Partly cloudy 8 - - - -
25/12:30am 14.3 CALM 0 0 1010.6 - 8.4 - Partly cloudy 10 - - - -
25/12:00am 14.4 CALM 0 0 1011.1 - 8.4 - Cloudy 10 - - - -
 
Date/Time
EST
Temp
°C
Wind Pressure Rain since
9am
mm
Weather Cloud Vis
km
Sea
Height
m
Swell
Dir  Spd
kts
Gust
kts
hPa Trend Height
m
Period
s
Dir
24/11:30pm 14.4 CALM 0 3 1011.5 - 8.4 - Partly cloudy 10 - - - -
24/11:00pm 14.4 SSE 3 4 1011.7 - 8.4 - Partly cloudy 8 - - - -
24/10:46pm 14.4 SE 1 3 1012.0 - 8.4 - Partly cloudy 9 - - - -
24/10:30pm 14.4 CALM 0 0 1012.1 - 8.2 - Partly cloudy 6 - - - -
24/10:24pm 14.4 CALM 0 0 1012.1 - 8.0 - Partly cloudy 6 - - - -
24/10:00pm 14.4 CALM 0 0 1012.3 - 7.6 - Partly cloudy 10 - - - -
24/09:30pm 14.3 ESE 3 5 1012.2 - 7.6 - Partly cloudy 10 - - - -
24/09:00pm 14.5 E 4 6 1012.5 - 7.6 - Cloudy 10 - - - -
24/08:30pm 14.6 E 4 7 1012.9 - 7.6 - Partly cloudy 10 - - - -
24/08:00pm 14.5 SE 5 6 1013.2 - 7.6 - Cloudy 10 - - - -
24/07:30pm 14.6 E 5 7 1013.5 - 7.6 - Cloudy 10 - - - -
24/07:00pm 14.6 ESE 3 5 1013.7 - 7.6 - Partly cloudy 9 - - - -
24/06:42pm 14.6 SE 3 5 1013.6 - 7.6 - Partly cloudy 8 - - - -
24/06:30pm 14.6 ESE 4 6 1013.5 - 7.6 - Partly cloudy 6 - - - -
24/06:28pm 14.6 SE 4 6 1013.5 - 7.6 - Partly cloudy 6 - - - -
24/06:00pm 14.7 SSE 3 5 1013.8 - 7.6 Recent precip. Cloudy 10 - - - -
24/05:30pm 14.8 SE 3 6 1013.8 - 7.6 - Cloudy 10 - - - -
24/05:00pm 14.8 ESE 5 6 1013.9 - 7.4 - Partly cloudy 9 - - - -
24/04:46pm 14.8 E 5 8 1013.9 - 7.2 - Partly cloudy 8 - - - -
24/04:30pm 14.9 ESE 4 6 1014.2 - 7.0 - Partly cloudy 6 - - - -
24/04:20pm 14.9 E 4 6 1014.3 - 6.6 - Partly cloudy 6 - - - -
24/04:00pm 14.9 E 5 8 1014.3 - 5.8 - Partly cloudy 6 - - - -
24/03:30pm 15.1 ESE 2 5 1014.7 - 4.4 - Partly cloudy 5 - - - -
24/03:24pm 15.1 ESE 3 5 1014.7 - 4.0 - Partly cloudy 6 - - - -

Other Formats:

Comma delimited format used in spreadsheet applications
http://www.bom.gov.au/fwo/IDV60701/IDV60701.94828.axf

JavaScript Object Notation format (JSON) in row-major order
http://www.bom.gov.au/fwo/IDV60701/IDV60701.94828.json